createdAt,value
2023-05-22T00:00:07.559Z,4.03
2023-05-22T00:02:38.940Z,4.70
2023-05-22T00:05:10.200Z,4.13
2023-05-22T00:07:39.915Z,4.32
2023-05-22T00:10:09.081Z,4.38
2023-05-22T00:12:37.692Z,4.28
2023-05-22T00:15:07.241Z,4.40
2023-05-22T00:17:37.221Z,4.40
2023-05-22T00:20:08.987Z,4.40
2023-05-22T00:22:38.335Z,4.28
2023-05-22T00:25:08.081Z,4.40
2023-05-22T00:27:36.592Z,4.38
2023-05-22T00:30:06.340Z,4.32
2023-05-22T00:32:34.829Z,4.43
2023-05-22T00:35:04.959Z,4.82
2023-05-22T00:37:33.428Z,4.10
2023-05-22T00:40:01.894Z,4.57
2023-05-22T00:42:30.314Z,4.38
2023-05-22T00:44:58.849Z,4.40
2023-05-22T00:47:27.365Z,4.88
2023-05-22T00:49:56.082Z,4.20
2023-05-22T00:52:26.313Z,4.20
2023-05-22T00:54:55.238Z,4.32
2023-05-22T00:57:24.598Z,4.45
2023-05-22T00:59:53.370Z,4.90
2023-05-22T01:02:23.482Z,4.60
2023-05-22T01:04:53.851Z,4.25
2023-05-22T01:07:23.908Z,4.15
2023-05-22T01:09:53.920Z,4.43
2023-05-22T01:12:28.500Z,4.47
2023-05-22T01:15:05.030Z,4.00
2023-05-22T01:17:46.283Z,4.47
2023-05-22T01:20:24.413Z,4.70
2023-05-22T01:23:16.689Z,4.25
2023-05-22T01:26:04.948Z,4.40
2023-05-22T01:28:48.726Z,4.03
2023-05-22T01:31:20.348Z,4.40
2023-05-22T01:33:51.427Z,4.38
2023-05-22T01:36:23.453Z,4.22
2023-05-22T01:38:53.267Z,4.63
2023-05-22T01:41:22.434Z,4.20
2023-05-22T01:43:50.974Z,4.60
2023-05-22T01:46:20.859Z,4.40
2023-05-22T01:48:49.407Z,4.60
2023-05-22T01:51:24.876Z,4.57
2023-05-22T01:54:00.052Z,4.30
2023-05-22T01:56:38.144Z,4.63
2023-05-22T01:59:15.087Z,4.35
2023-05-22T02:01:46.179Z,4.22
2023-05-22T02:04:17.354Z,4.10
2023-05-22T02:06:46.048Z,4.53
2023-05-22T02:09:16.877Z,4.10
2023-05-22T02:11:45.650Z,4.47
2023-05-22T02:14:14.371Z,4.28
2023-05-22T02:16:47.872Z,4.07
2023-05-22T02:19:16.410Z,4.70
2023-05-22T02:21:44.889Z,4.43
2023-05-22T02:24:14.365Z,4.53
2023-05-22T02:26:43.180Z,3.92
2023-05-22T02:29:12.964Z,4.47
2023-05-22T02:31:41.528Z,4.68
2023-05-22T02:34:11.668Z,4.60
2023-05-22T02:36:40.127Z,4.68
2023-05-22T02:39:08.893Z,4.45
2023-05-22T02:41:37.369Z,4.60
2023-05-22T02:44:06.108Z,4.32
2023-05-22T02:46:34.637Z,4.32
2023-05-22T02:49:03.078Z,4.80
2023-05-22T02:51:33.014Z,4.40
2023-05-22T02:54:01.493Z,4.75
2023-05-22T02:56:29.966Z,4.50
2023-05-22T02:58:58.468Z,4.30
2023-05-22T03:01:30.430Z,4.57
2023-05-22T03:03:59.395Z,4.30
2023-05-22T03:06:28.100Z,4.45
2023-05-22T03:08:58.018Z,4.30
2023-05-22T03:11:26.716Z,4.32
2023-05-22T03:13:55.141Z,4.82
2023-05-22T03:16:23.794Z,4.47
2023-05-22T03:18:53.473Z,4.93
2023-05-22T03:21:21.928Z,4.65
2023-05-22T03:23:50.380Z,4.40
2023-05-22T03:26:20.182Z,4.35
2023-05-22T03:28:50.660Z,4.32
2023-05-22T03:31:19.142Z,4.75
2023-05-22T03:33:47.651Z,4.72
2023-05-22T03:36:17.361Z,4.60
2023-05-22T03:38:45.891Z,5.13
2023-05-22T03:41:14.449Z,4.90
2023-05-22T03:43:45.114Z,4.60
2023-05-22T03:46:13.839Z,4.40
2023-05-22T03:48:42.406Z,4.78
2023-05-22T03:51:10.955Z,4.57
2023-05-22T03:53:39.594Z,4.68
2023-05-22T03:56:08.578Z,5.40
2023-05-22T03:58:37.062Z,4.68
2023-05-22T04:01:10.010Z,4.57
2023-05-22T04:03:38.898Z,4.93
2023-05-22T04:06:07.810Z,4.80
2023-05-22T04:08:36.303Z,5.18
2023-05-22T04:11:05.417Z,5.03
2023-05-22T04:13:33.923Z,4.93
2023-05-22T04:16:04.286Z,5.03
2023-05-22T04:18:34.180Z,4.90
2023-05-22T04:21:02.919Z,5.00
2023-05-22T04:23:31.931Z,4.85
2023-05-22T04:26:02.404Z,5.32
2023-05-22T04:28:31.267Z,5.32
2023-05-22T04:30:59.720Z,4.75
2023-05-22T04:33:29.029Z,5.10
2023-05-22T04:35:58.872Z,4.88
2023-05-22T04:38:27.351Z,4.45
2023-05-22T04:40:55.784Z,4.85
2023-05-22T04:43:26.882Z,4.90
2023-05-22T04:45:56.458Z,4.60
2023-05-22T04:48:25.168Z,5.18
2023-05-22T04:50:54.312Z,5.15
2023-05-22T04:53:24.195Z,5.22
2023-05-22T04:55:52.673Z,5.28
2023-05-22T04:58:21.913Z,5.10
2023-05-22T05:00:52.522Z,5.15
2023-05-22T05:03:22.838Z,5.40
2023-05-22T05:05:51.471Z,5.20
2023-05-22T05:08:20.040Z,5.00
2023-05-22T05:10:49.885Z,4.93
2023-05-22T05:13:18.321Z,4.90
2023-05-22T05:15:46.888Z,5.60
2023-05-22T05:18:15.407Z,5.20
2023-05-22T05:20:44.063Z,5.65
2023-05-22T05:23:12.553Z,5.35
2023-05-22T05:25:40.987Z,4.75
2023-05-22T05:28:12.181Z,7.93
2023-05-22T05:30:41.686Z,4.95
2023-05-22T05:33:10.447Z,5.15
2023-05-22T05:35:41.425Z,5.38
2023-05-22T05:38:11.239Z,5.28
2023-05-22T05:40:40.071Z,5.57
2023-05-22T05:43:10.180Z,5.40
2023-05-22T05:45:38.618Z,5.63
2023-05-22T05:48:07.912Z,5.50
2023-05-22T05:50:36.939Z,5.70
2023-05-22T05:53:06.285Z,5.40
2023-05-22T05:55:34.852Z,5.60
2023-05-22T05:58:03.325Z,5.43
2023-05-22T06:00:33.203Z,5.93
2023-05-22T06:03:01.860Z,5.40
2023-05-22T06:05:30.494Z,5.68
2023-05-22T06:07:59.278Z,5.53
2023-05-22T06:10:27.704Z,4.78
2023-05-22T06:12:56.499Z,6.43
2023-05-22T06:15:24.969Z,5.47
2023-05-22T06:17:54.806Z,5.40
2023-05-22T06:20:25.088Z,5.53
2023-05-22T06:22:53.544Z,5.72
2023-05-22T06:25:23.795Z,6.68
2023-05-22T06:27:52.316Z,5.75
2023-05-22T06:30:31.863Z,6.13
2023-05-22T06:33:10.723Z,6.30
2023-05-22T06:35:39.404Z,6.40
2023-05-22T06:38:07.940Z,6.15
2023-05-22T06:40:36.564Z,5.97
2023-05-22T06:43:05.133Z,5.97
2023-05-22T06:45:33.674Z,5.82
2023-05-22T06:48:02.353Z,6.05
2023-05-22T06:50:32.902Z,5.75
2023-05-22T06:53:01.411Z,5.72
2023-05-22T06:55:29.855Z,5.97
2023-05-22T06:57:58.342Z,6.13
2023-05-22T07:00:26.923Z,6.00
2023-05-22T07:02:55.579Z,5.63
2023-05-22T07:05:24.116Z,6.03
2023-05-22T07:07:54.026Z,6.03
2023-05-22T07:10:22.663Z,5.60
2023-05-22T07:12:51.128Z,5.93
2023-05-22T07:15:19.574Z,6.50
2023-05-22T07:17:48.060Z,5.97
2023-05-22T07:20:16.892Z,6.15
2023-05-22T07:22:45.349Z,5.55
2023-05-22T07:25:15.210Z,5.72
2023-05-22T07:27:43.662Z,5.70
2023-05-22T07:30:13.093Z,6.05
2023-05-22T07:32:41.588Z,6.15
2023-05-22T07:35:11.866Z,6.15
2023-05-22T07:37:41.325Z,5.80
2023-05-22T07:40:11.216Z,5.57
2023-05-22T07:42:41.777Z,5.95
2023-05-22T07:45:11.552Z,5.68
2023-05-22T07:47:40.294Z,5.53
2023-05-22T07:50:10.232Z,5.80
2023-05-22T07:52:38.763Z,5.78
2023-05-22T07:55:08.767Z,5.35
2023-05-22T07:57:37.272Z,6.05
2023-05-22T08:00:13.923Z,5.63
2023-05-22T08:02:43.077Z,5.75
2023-05-22T08:05:12.548Z,5.40
2023-05-22T08:07:41.530Z,7.15
2023-05-22T08:10:16.834Z,5.20
2023-05-22T08:12:45.623Z,5.63
2023-05-22T08:15:15.652Z,5.75
2023-05-22T08:17:44.145Z,5.30
2023-05-22T08:20:13.737Z,5.57
2023-05-22T08:22:42.449Z,5.70
2023-05-22T08:25:11.117Z,5.53
2023-05-22T08:27:39.590Z,4.90
2023-05-22T08:30:09.594Z,5.10
2023-05-22T08:32:39.480Z,4.97
2023-05-22T08:35:08.907Z,6.00
2023-05-22T08:37:37.344Z,5.35
2023-05-22T08:40:08.617Z,5.30
2023-05-22T08:42:37.141Z,5.47
2023-05-22T08:45:07.108Z,5.30
2023-05-22T08:47:36.752Z,5.43
2023-05-22T08:50:09.300Z,5.10
2023-05-22T08:52:48.023Z,4.75
2023-05-22T08:55:19.425Z,5.10
2023-05-22T08:57:48.470Z,5.65
2023-05-22T09:00:18.253Z,4.75
2023-05-22T09:02:48.880Z,5.18
2023-05-22T09:05:18.825Z,5.13
2023-05-22T09:07:48.959Z,4.85
2023-05-22T09:10:17.513Z,5.00
2023-05-22T09:13:07.915Z,4.68
2023-05-22T09:15:37.615Z,4.70
2023-05-22T09:18:07.057Z,4.65
2023-05-22T09:20:40.117Z,4.70
2023-05-22T09:23:17.739Z,5.13
2023-05-22T09:25:47.005Z,4.70
2023-05-22T09:28:15.470Z,4.95
2023-05-22T09:30:44.158Z,5.00
2023-05-22T09:33:14.333Z,4.93
2023-05-22T09:35:45.816Z,4.78
2023-05-22T09:38:14.670Z,4.78
2023-05-22T09:40:43.404Z,4.85
2023-05-22T09:43:12.795Z,4.63
2023-05-22T09:45:41.995Z,4.95
2023-05-22T09:48:12.634Z,4.85
2023-05-22T09:50:41.949Z,4.45
2023-05-22T09:53:12.107Z,5.05
2023-05-22T09:55:41.174Z,5.45
2023-05-22T09:58:13.442Z,5.10
2023-05-22T10:00:43.006Z,5.20
2023-05-22T10:03:12.945Z,4.28
2023-05-22T10:05:47.224Z,5.57
2023-05-22T10:08:22.056Z,5.60
2023-05-22T10:10:52.903Z,5.63
2023-05-22T10:13:22.010Z,5.05
2023-05-22T10:15:51.560Z,4.43
2023-05-22T10:18:20.273Z,4.90
2023-05-22T10:20:49.392Z,4.70
2023-05-22T10:23:20.045Z,4.63
2023-05-22T10:25:48.592Z,6.22
2023-05-22T10:28:24.668Z,5.55
2023-05-22T10:31:01.372Z,4.53
2023-05-22T10:33:35.028Z,6.15
2023-05-22T10:36:06.604Z,5.03
2023-05-22T10:39:12.305Z,4.65
2023-05-22T10:41:41.605Z,4.90
2023-05-22T10:44:10.155Z,4.90
2023-05-22T10:46:38.641Z,4.63
2023-05-22T10:49:07.390Z,4.82
2023-05-22T10:51:36.458Z,4.40
2023-05-22T10:54:06.541Z,5.78
2023-05-22T10:56:36.287Z,4.35
2023-05-22T10:59:08.372Z,4.57
2023-05-22T11:01:38.562Z,4.47
2023-05-22T11:04:15.927Z,4.22
2023-05-22T11:06:46.396Z,4.53
2023-05-22T11:09:34.681Z,4.20
2023-05-22T11:12:31.239Z,4.55
2023-05-22T11:15:03.641Z,4.85
2023-05-22T11:17:33.780Z,3.70
2023-05-22T11:20:06.099Z,4.25
2023-05-22T11:22:36.720Z,3.95
2023-05-22T11:25:09.470Z,4.47
2023-05-22T11:27:39.239Z,4.40
2023-05-22T11:30:09.538Z,3.97
2023-05-22T11:32:38.865Z,3.90
2023-05-22T11:35:09.324Z,3.67
2023-05-22T11:37:41.749Z,3.78
2023-05-22T11:40:14.434Z,4.03
2023-05-22T11:42:42.975Z,4.20
2023-05-22T11:45:12.670Z,6.30
2023-05-22T11:47:41.698Z,4.32
2023-05-22T11:50:11.863Z,4.07
2023-05-22T11:52:42.951Z,6.55
2023-05-22T11:55:12.849Z,3.47
2023-05-22T11:57:41.341Z,4.40
2023-05-22T12:00:11.023Z,4.90
2023-05-22T12:02:39.960Z,4.00
2023-05-22T12:05:11.867Z,3.90
2023-05-22T12:07:40.619Z,4.10
2023-05-22T12:10:09.521Z,3.60
2023-05-22T12:12:39.935Z,3.60
2023-05-22T12:15:09.459Z,3.72
2023-05-22T12:17:38.760Z,3.78
2023-05-22T12:20:08.323Z,3.90
2023-05-22T12:22:43.026Z,4.40
2023-05-22T12:25:15.520Z,3.67
2023-05-22T12:27:46.456Z,4.03
2023-05-22T12:30:16.329Z,3.90
2023-05-22T12:32:49.093Z,4.60
2023-05-22T12:35:18.402Z,4.05
2023-05-22T12:37:50.812Z,4.40
2023-05-22T12:40:19.371Z,4.60
2023-05-22T12:42:49.665Z,4.03
2023-05-22T12:45:18.814Z,3.83
2023-05-22T12:47:47.420Z,4.28
2023-05-22T12:50:16.222Z,4.20
2023-05-22T12:52:45.085Z,5.18
2023-05-22T12:55:13.608Z,4.47
2023-05-22T12:57:42.205Z,4.40
2023-05-22T13:00:13.441Z,4.38
2023-05-22T13:02:42.575Z,5.10
2023-05-22T13:05:11.192Z,4.70
2023-05-22T13:07:39.861Z,4.57
2023-05-22T13:10:09.585Z,4.13
2023-05-22T13:12:38.116Z,4.35
2023-05-22T13:15:07.721Z,4.38
2023-05-22T13:17:37.560Z,3.90
2023-05-22T13:20:11.455Z,4.75
2023-05-22T13:22:40.270Z,4.35
2023-05-22T13:25:09.710Z,4.35
2023-05-22T13:27:38.293Z,5.40
2023-05-22T13:30:07.965Z,5.55
2023-05-22T13:32:37.920Z,3.78
2023-05-22T13:35:07.531Z,4.05
2023-05-22T13:37:36.035Z,9.80
2023-05-22T13:40:05.016Z,4.97
2023-05-22T13:42:33.644Z,4.90
2023-05-22T13:45:02.216Z,5.70
2023-05-22T13:47:31.135Z,4.20
2023-05-22T13:50:01.006Z,8.98
2023-05-22T13:52:29.567Z,4.63
2023-05-22T13:54:58.280Z,4.30
2023-05-22T13:57:26.820Z,5.45
2023-05-22T13:59:55.712Z,4.32
2023-05-22T14:02:24.649Z,5.10
2023-05-22T14:04:53.205Z,5.40
2023-05-22T14:07:23.732Z,4.50
2023-05-22T14:09:52.237Z,4.40
2023-05-22T14:12:20.793Z,3.78
2023-05-22T14:14:49.419Z,4.45
2023-05-22T14:17:18.005Z,4.63
2023-05-22T14:19:46.876Z,6.50
2023-05-22T14:22:15.469Z,5.13
2023-05-22T14:24:45.350Z,4.72
2023-05-22T14:27:13.869Z,3.60
2023-05-22T14:29:42.811Z,3.65
2023-05-22T14:32:11.470Z,3.67
2023-05-22T14:34:40.001Z,5.80
2023-05-22T14:37:11.654Z,4.30
2023-05-22T14:39:40.117Z,5.10
2023-05-22T14:42:10.190Z,4.80
2023-05-22T14:44:38.786Z,3.92
2023-05-22T14:47:07.438Z,4.35
2023-05-22T14:49:35.964Z,4.35
2023-05-22T14:52:04.558Z,4.72
2023-05-22T14:54:34.751Z,4.45
2023-05-22T14:57:03.523Z,4.90
2023-05-22T14:59:33.997Z,4.32
2023-05-22T15:02:02.527Z,5.10
2023-05-22T15:04:31.483Z,4.32
2023-05-22T15:07:00.034Z,4.60
2023-05-22T15:09:28.581Z,4.78
2023-05-22T15:11:57.048Z,4.55
2023-05-22T15:14:25.612Z,4.93
2023-05-22T15:16:55.554Z,3.90
2023-05-22T15:19:25.006Z,4.00
2023-05-22T15:21:54.639Z,4.18
2023-05-22T15:24:23.771Z,4.35
2023-05-22T15:26:52.202Z,4.93
2023-05-22T15:29:20.831Z,4.55
2023-05-22T15:31:49.425Z,4.70
2023-05-22T15:34:19.371Z,5.03
2023-05-22T15:36:47.987Z,4.68
2023-05-22T15:39:16.810Z,5.20
2023-05-22T15:41:54.612Z,4.88
2023-05-22T15:44:31.243Z,4.75
2023-05-22T15:46:59.804Z,4.32
2023-05-22T15:49:31.357Z,4.78
2023-05-22T15:52:00.311Z,4.57
2023-05-22T15:54:28.935Z,5.28
2023-05-22T15:56:57.476Z,5.50
2023-05-22T15:59:25.971Z,4.35
2023-05-22T16:01:54.465Z,5.00
2023-05-22T16:04:23.509Z,5.15
2023-05-22T16:06:53.756Z,4.90
2023-05-22T16:09:22.532Z,4.65
2023-05-22T16:11:51.375Z,5.63
2023-05-22T16:14:20.080Z,4.57
2023-05-22T16:16:48.789Z,4.80
2023-05-22T16:19:17.515Z,4.65
2023-05-22T16:21:46.408Z,4.65
2023-05-22T16:24:20.932Z,4.30
2023-05-22T16:26:49.551Z,5.22
2023-05-22T16:29:20.455Z,5.72
2023-05-22T16:31:49.402Z,4.45
2023-05-22T16:34:17.957Z,5.75
2023-05-22T16:36:46.578Z,4.70
2023-05-22T16:39:15.763Z,5.70
2023-05-22T16:41:45.692Z,5.70
2023-05-22T16:44:14.270Z,7.32
2023-05-22T16:46:42.856Z,4.30
2023-05-22T16:49:11.296Z,4.70
2023-05-22T16:51:39.763Z,4.45
2023-05-22T16:54:08.373Z,4.43
2023-05-22T16:56:37.552Z,6.57
2023-05-22T16:59:07.417Z,5.10
2023-05-22T17:01:36.091Z,5.90
2023-05-22T17:04:04.776Z,4.57
2023-05-22T17:06:33.388Z,4.32
2023-05-22T17:09:01.891Z,4.28
2023-05-22T17:11:30.651Z,5.03
2023-05-22T17:13:59.106Z,5.00
2023-05-22T17:16:28.942Z,4.90
2023-05-22T17:18:57.890Z,4.80
2023-05-22T17:21:27.560Z,5.68
2023-05-22T17:23:56.339Z,4.20
2023-05-22T17:26:24.976Z,4.80
2023-05-22T17:28:53.673Z,4.97
2023-05-22T17:31:22.840Z,5.50
2023-05-22T17:33:52.893Z,5.38
2023-05-22T17:36:21.500Z,13.70
2023-05-22T17:38:50.081Z,18.55
2023-05-22T17:41:18.661Z,36.05
2023-05-22T17:43:47.223Z,44.45
2023-05-22T17:46:15.711Z,157.07
2023-05-22T17:48:44.262Z,119.53
2023-05-22T17:51:14.221Z,49.60
2023-05-22T17:53:43.497Z,71.60
2023-05-22T17:56:12.084Z,68.72
2023-05-22T17:58:40.708Z,51.38
2023-05-22T18:01:09.197Z,32.67
2023-05-22T18:03:38.064Z,30.80
2023-05-22T18:06:07.109Z,16.75
2023-05-22T18:08:37.099Z,30.90
2023-05-22T18:11:06.241Z,31.48
2023-05-22T18:13:34.937Z,28.40
2023-05-22T18:16:04.513Z,21.88
2023-05-22T18:18:33.100Z,21.88
2023-05-22T18:21:01.650Z,18.73
2023-05-22T18:23:30.128Z,21.85
2023-05-22T18:26:02.145Z,9.70
2023-05-22T18:28:30.623Z,17.88
2023-05-22T18:30:59.073Z,14.30
2023-05-22T18:33:27.749Z,16.33
2023-05-22T18:35:57.757Z,14.85
2023-05-22T18:38:27.256Z,11.82
2023-05-22T18:40:56.495Z,10.07
2023-05-22T18:43:28.248Z,22.65
2023-05-22T18:45:57.642Z,7.18
2023-05-22T18:48:27.251Z,8.10
2023-05-22T18:50:57.450Z,7.53
2023-05-22T18:53:27.324Z,6.60
2023-05-22T18:55:55.876Z,8.30
2023-05-22T18:58:24.433Z,10.18
2023-05-22T19:00:55.659Z,7.15
2023-05-22T19:03:25.131Z,6.40
2023-05-22T19:05:53.832Z,7.13
2023-05-22T19:08:24.897Z,4.40
2023-05-22T19:10:53.889Z,6.10
2023-05-22T19:13:22.370Z,5.90
2023-05-22T19:15:51.066Z,6.32
2023-05-22T19:18:20.962Z,6.80
2023-05-22T19:20:49.492Z,6.72
2023-05-22T19:23:17.997Z,6.30
2023-05-22T19:25:46.698Z,5.90
2023-05-22T19:28:15.670Z,6.45
2023-05-22T19:30:44.561Z,6.72
2023-05-22T19:33:14.780Z,4.93
2023-05-22T19:35:44.781Z,6.10
2023-05-22T19:38:13.506Z,6.10
2023-05-22T19:40:42.151Z,5.68
2023-05-22T19:43:10.973Z,6.25
2023-05-22T19:45:39.508Z,5.47
2023-05-22T19:48:08.116Z,5.20
2023-05-22T19:50:36.746Z,6.55
2023-05-22T19:53:06.791Z,5.28
2023-05-22T19:55:35.286Z,5.00
2023-05-22T19:58:04.075Z,5.15
2023-05-22T20:00:33.466Z,5.13
2023-05-22T20:03:02.311Z,6.32
2023-05-22T20:05:30.966Z,6.43
2023-05-22T20:07:59.502Z,6.07
2023-05-22T20:10:30.101Z,5.90
2023-05-22T20:12:59.826Z,5.43
2023-05-22T20:15:28.348Z,6.40
2023-05-22T20:17:57.875Z,4.93
2023-05-22T20:20:26.483Z,5.30
2023-05-22T20:22:55.096Z,5.10
2023-05-22T20:25:23.773Z,5.70
2023-05-22T20:27:54.247Z,5.40
2023-05-22T20:30:22.749Z,5.53
2023-05-22T20:32:52.059Z,10.38
2023-05-22T20:35:22.311Z,8.25
2023-05-22T20:37:53.437Z,5.97
2023-05-22T20:40:22.379Z,5.55
2023-05-22T20:42:53.179Z,5.25
2023-05-22T20:45:23.082Z,7.05
2023-05-22T20:47:52.113Z,6.07
2023-05-22T20:50:21.027Z,5.53
2023-05-22T20:52:49.542Z,5.82
2023-05-22T20:55:18.004Z,5.53
2023-05-22T20:57:46.451Z,6.13
2023-05-22T21:00:15.396Z,5.82
2023-05-22T21:02:45.482Z,6.30
2023-05-22T21:05:13.926Z,5.78
2023-05-22T21:07:42.442Z,5.80
2023-05-22T21:10:12.050Z,15.70
2023-05-22T21:12:40.502Z,6.20
2023-05-22T21:15:10.201Z,5.25
2023-05-22T21:17:39.162Z,10.98
2023-05-22T21:20:09.801Z,5.53
2023-05-22T21:22:38.468Z,5.32
2023-05-22T21:25:07.977Z,6.15
2023-05-22T21:27:36.479Z,6.07
2023-05-22T21:30:05.377Z,6.38
2023-05-22T21:32:33.866Z,5.30
2023-05-22T21:35:02.311Z,4.60
2023-05-22T21:37:32.146Z,5.75
2023-05-22T21:40:01.556Z,5.50
2023-05-22T21:42:41.968Z,6.03
2023-05-22T21:45:15.056Z,5.43
2023-05-22T21:47:43.592Z,5.80
2023-05-22T21:50:12.679Z,6.03
2023-05-22T21:52:44.194Z,5.18
2023-05-22T21:55:12.725Z,4.95
2023-05-22T21:57:41.317Z,5.13
2023-05-22T22:00:10.822Z,5.25
2023-05-22T22:02:41.863Z,5.45
2023-05-22T22:05:11.604Z,5.10
2023-05-22T22:07:39.960Z,6.22
2023-05-22T22:10:10.452Z,4.70
2023-05-22T22:12:38.789Z,6.45
2023-05-22T22:15:08.299Z,4.75
2023-05-22T22:17:37.252Z,4.68
2023-05-22T22:20:07.266Z,4.57
2023-05-22T22:22:35.808Z,4.90
2023-05-22T22:25:04.470Z,4.75
2023-05-22T22:27:34.392Z,5.38
2023-05-22T22:30:02.810Z,5.88
2023-05-22T22:32:31.594Z,6.50
2023-05-22T22:35:00.119Z,8.45
2023-05-22T22:37:28.575Z,5.70
2023-05-22T22:39:57.037Z,5.68
2023-05-22T22:42:26.636Z,4.68
2023-05-22T22:44:56.471Z,5.72
2023-05-22T22:47:25.125Z,5.38
2023-05-22T22:49:53.678Z,4.95
2023-05-22T22:52:22.069Z,4.68
2023-05-22T22:54:50.551Z,5.47
2023-05-22T22:57:19.025Z,6.57
2023-05-22T22:59:47.451Z,5.47
2023-05-22T23:02:17.191Z,6.65
2023-05-22T23:04:45.686Z,5.18
2023-05-22T23:07:14.089Z,5.03
2023-05-22T23:09:42.514Z,4.82
2023-05-22T23:12:10.914Z,4.68
2023-05-22T23:14:39.273Z,4.72
2023-05-22T23:17:07.662Z,4.88
2023-05-22T23:19:37.458Z,4.80
2023-05-22T23:22:06.019Z,5.03
2023-05-22T23:24:34.519Z,4.80
2023-05-22T23:27:02.977Z,5.35
2023-05-22T23:29:31.436Z,5.10
2023-05-22T23:31:59.976Z,4.70
2023-05-22T23:34:28.554Z,4.50
2023-05-22T23:36:58.346Z,4.70
2023-05-22T23:43:14.753Z,4.20
2023-05-22T23:45:43.209Z,5.10
2023-05-22T23:48:11.567Z,5.28
2023-05-22T23:50:39.900Z,5.40
2023-05-22T23:53:09.655Z,5.38
2023-05-22T23:55:38.134Z,5.35
2023-05-22T23:58:06.728Z,4.90
